Tuesday, January 22, 2019, 4:03 PM EST
Back to Local

KORE, Orange, Orange Municipal Airport

Location: Orange, MA, United States Lat: 42.572
Local Time: 4:03 PM EST (21:03 GMT) Lon: -72.278
Time Zone: US/Eastern Elev: 554 ft

Show me the last for .
Show Decoded

2019-01-22 15:52 METAR KORE 222052Z AUTO 27005KT 10SM M05/M23 A3052 RMK AO2 SLP349 60000
                 T10501233 53002 =
2019-01-22 14:52 METAR KORE 221952Z AUTO 30010KT 10SM M04/M24 A3052 RMK AO2 SLP349 T10391239 =
2019-01-22 13:52 METAR KORE 221852Z AUTO 28007KT 10SM M04/M24 A3051 RMK AO2 UPB17E26 SLP346 P0000
                 T10441239 =
2019-01-22 12:52 METAR KORE 221752Z AUTO 29010KT 10SM M05/M25 A3052 RMK AO2 SLP347 60000
                 T10501250 11050 21222 58000 =
2019-01-22 11:52 METAR KORE 221652Z AUTO 32015G19KT 10SM M07/M25 A3052 RMK AO2 UPB12E18 SLP349
                 P0000 T10671250 =
2019-01-22 10:52 METAR KORE 221552Z AUTO 31005KT 10SM M08/M25 A3053 RMK AO2 SLP350 T10831250 =
2019-01-22 09:52 METAR KORE 221452Z AUTO 00000KT 10SM M12/M25 A3052 RMK AO2 SLP349 T11171250
                 51028 =
2019-01-22 08:52 METAR KORE 221352Z AUTO 19003KT 10SM M18/M24 A3050 RMK AO2 SLP345 T11781239 =
2019-01-22 07:52 METAR KORE 221252Z AUTO 00000KT 10SM M21/M26 A3048 RMK AO2 SLP339 T12061261 =
2019-01-22 06:52 METAR KORE 221152Z AUTO 00000KT 10SM M21/M26 A3043 RMK AO2 SLP323 T12061261
                 11156 21211 53042 =
2019-01-22 05:52 METAR KORE 221052Z AUTO 00000KT 10SM M17/M26 A3038 RMK AO2 SLP303 T11671256 =
2019-01-22 04:52 METAR KORE 220952Z AUTO 29006KT 10SM M16/M26 A3034 RMK AO2 SLP291 T11611261 =
2019-01-22 03:52 METAR KORE 220852Z AUTO 32005KT 10SM M17/M26 A3031 RMK AO2 SLP279 T11671261
                 51032 =
2019-01-22 02:52 METAR KORE 220752Z AUTO 34006KT 10SM M17/M26 A3028 RMK AO2 SLP270 T11671261 =
2019-01-22 01:52 METAR KORE 220652Z AUTO 35007KT 10SM M16/M26 A3026 RMK AO2 SLP263 T11611261 =
2019-01-22 00:52 METAR KORE 220552Z AUTO 35010G19KT 10SM M16/M27 A3021 RMK AO2 SLP247 T11561267
                 11156 21167 51036 =
2019-01-21 23:52 METAR KORE 220452Z AUTO 36005KT 10SM M16/M27 A3019 RMK AO2 SLP240 T11611272
                 411561200 =
2019-01-21 22:52 METAR KORE 220352Z AUTO 32007KT 10SM M16/M27 A3016 RMK AO2 SLP229 T11611272 =
2019-01-21 21:52 METAR KORE 220252Z AUTO 31014G23KT 10SM M16/M27 A3010 RMK AO2 SLP210 T11611272
                 51026 =
2019-01-21 20:52 METAR KORE 220152Z AUTO 33008KT 10SM M17/M26 A3009 RMK AO2 PK WND 31026/0055
                 SLP204 T11671261 =
2019-01-21 19:52 METAR KORE 220052Z AUTO 33012G20KT 10SM M16/M25 A3006 RMK AO2 SLP195 T11611250 =
2019-01-21 18:52 METAR KORE 212352Z AUTO 31014G22KT 10SM M16/M25 A3003 RMK AO2 PRESRR SLP184
                 60000 T11611250 11156 21178 53042 =
2019-01-21 17:52 METAR KORE 212252Z AUTO 32010KT 10SM M16/M24 A2998 RMK AO2 PRESRR SLP166
                 T11611244 =
2019-01-21 16:52 METAR KORE 212152Z AUTO 32009KT 10SM M16/M24 A2993 RMK AO2 SLP150 T11611244 =

Support USWX by starting your Amazon purchase here.